Time,TemperatureF,DewpointF,PressureIn,WindDirection,WindDirectionDegrees,WindSpeedMPH,WindSpeedGustMPH,Humidity,HourlyPrecipIn,Conditions,Clouds,dailyrainin,SolarRadiationWatts/m^2,SoftwareType,DateUTC
2013-12-31 00:04:00,47.4,45.5,30.28,NE,49,2.0,2.0,93,0.00,,,0.00,0,Wunderground v.1.15,2013-12-31 08:04:00,
2013-12-31 00:14:00,46.7,44.8,30.28,NE,48,0.0,1.0,93,0.00,,,0.00,0,Wunderground v.1.15,2013-12-31 08:14:00,
2013-12-31 00:19:00,46.4,44.5,30.28,NE,49,0.0,0.0,93,0.00,,,0.00,0,Wunderground v.1.15,2013-12-31 08:19:00,
2013-12-31 00:24:00,46.1,44.2,30.28,NE,49,1.0,2.0,93,0.00,,,0.00,0,Wunderground v.1.15,2013-12-31 08:24:00,
2013-12-31 00:29:00,45.9,44.0,30.28,NE,49,2.0,2.0,93,0.00,,,0.00,0,Wunderground v.1.15,2013-12-31 08:29:00,
2013-12-31 00:39:00,45.4,43.5,30.27,NE,49,1.0,2.0,93,0.00,,,0.00,0,Wunderground v.1.15,2013-12-31 08:39:00,
2013-12-31 00:44:00,44.9,43.0,30.27,NE,49,1.0,2.0,93,0.00,,,0.00,0,Wunderground v.1.15,2013-12-31 08:44:00,
2013-12-31 00:54:00,43.7,41.5,30.27,NE,49,2.0,2.0,92,0.00,,,0.00,0,Wunderground v.1.15,2013-12-31 08:54:00,
2013-12-31 00:59:00,43.2,41.0,30.27,NE,49,2.0,3.0,92,0.00,,,0.00,0,Wunderground v.1.15,2013-12-31 08:59:00,
2013-12-31 01:04:00,42.9,41.0,30.27,NE,48,2.0,3.0,93,0.00,,,0.00,0,Wunderground v.1.15,2013-12-31 09:04:00,
2013-12-31 01:14:00,42.3,40.4,30.27,NE,50,2.0,3.0,93,0.00,,,0.00,0,Wunderground v.1.15,2013-12-31 09:14:00,
2013-12-31 01:19:00,42.1,40.2,30.27,NE,49,2.0,3.0,93,0.00,,,0.00,0,Wunderground v.1.15,2013-12-31 09:19:00,
2013-12-31 01:29:00,42.0,40.1,30.28,NE,49,3.0,5.0,93,0.00,,,0.00,0,Wunderground v.1.15,2013-12-31 09:29:00,
2013-12-31 01:34:00,42.1,40.2,30.28,NE,49,4.0,5.0,93,0.00,,,0.00,0,Wunderground v.1.15,2013-12-31 09:34:00,
2013-12-31 01:39:00,42.2,40.3,30.27,NE,49,3.0,3.0,93,0.00,,,0.00,0,Wunderground v.1.15,2013-12-31 09:39:00,
2013-12-31 01:49:00,42.5,40.6,30.28,NE,48,3.0,4.0,93,0.00,,,0.00,0,Wunderground v.1.15,2013-12-31 09:49:00,
2013-12-31 01:54:00,42.7,40.8,30.28,NE,49,3.0,4.0,93,0.00,,,0.00,0,Wunderground v.1.15,2013-12-31 09:54:00,
2013-12-31 02:04:00,42.7,40.5,30.28,NE,49,2.0,4.0,92,0.00,,,0.00,0,Wunderground v.1.15,2013-12-31 10:04:00,
2013-12-31 02:09:00,42.5,40.3,30.28,NE,48,3.0,4.0,92,0.00,,,0.00,0,Wunderground v.1.15,2013-12-31 10:09:00,
2013-12-31 02:19:00,42.2,40.0,30.28,NE,48,3.0,3.0,92,0.00,,,0.00,0,Wunderground v.1.15,2013-12-31 10:19:00,
2013-12-31 02:24:00,42.0,39.8,30.28,NE,50,3.0,5.0,92,0.00,,,0.00,0,Wunderground v.1.15,2013-12-31 10:24:00,
2013-12-31 02:34:00,41.9,39.7,30.28,NE,49,4.0,4.0,92,0.00,,,0.00,0,Wunderground v.1.15,2013-12-31 10:34:00,
2013-12-31 02:39:00,41.9,39.7,30.28,NE,49,4.0,4.0,92,0.00,,,0.00,0,Wunderground v.1.15,2013-12-31 10:39:00,
2013-12-31 02:44:00,42.0,39.8,30.28,NE,41,4.0,4.0,92,0.00,,,0.00,0,Wunderground v.1.15,2013-12-31 10:44:00,
2013-12-31 02:54:00,42.1,39.9,30.28,NE,38,4.0,5.0,92,0.00,,,0.00,0,Wunderground v.1.15,2013-12-31 10:54:00,
2013-12-31 02:59:00,42.0,39.8,30.28,NE,36,4.0,4.0,92,0.00,,,0.00,0,Wunderground v.1.15,2013-12-31 10:59:00,
2013-12-31 03:04:00,41.9,39.5,30.28,NE,35,4.0,5.0,91,0.00,,,0.00,0,Wunderground v.1.15,2013-12-31 11:04:00,
2013-12-31 03:14:00,41.7,39.3,30.28,NNE,28,4.0,4.0,91,0.00,,,0.00,0,Wunderground v.1.15,2013-12-31 11:14:00,
2013-12-31 03:19:00,41.7,39.3,30.28,NNE,26,3.0,3.0,91,0.00,,,0.00,0,Wunderground v.1.15,2013-12-31 11:19:00,
2013-12-31 03:29:00,42.0,39.6,30.28,NNE,26,4.0,4.0,91,0.00,,,0.00,0,Wunderground v.1.15,2013-12-31 11:29:00,
2013-12-31 03:34:00,42.2,39.8,30.28,NNE,21,4.0,5.0,91,0.00,,,0.00,0,Wunderground v.1.15,2013-12-31 11:34:00,
2013-12-31 03:39:00,42.4,40.0,30.28,NNE,19,5.0,5.0,91,0.00,,,0.00,0,Wunderground v.1.15,2013-12-31 11:39:00,
2013-12-31 03:49:00,42.8,40.4,30.27,NNE,17,5.0,5.0,91,0.00,,,0.00,0,Wunderground v.1.15,2013-12-31 11:49:00,
2013-12-31 03:54:00,42.9,40.7,30.27,NNE,14,5.0,5.0,92,0.00,,,0.00,0,Wunderground v.1.15,2013-12-31 11:54:00,
2013-12-31 04:04:00,43.1,40.9,30.27,North,10,6.0,7.0,92,0.00,,,0.00,0,Wunderground v.1.15,2013-12-31 12:04:00,
2013-12-31 04:09:00,43.1,40.9,30.27,North,10,5.0,5.0,92,0.00,,,0.00,0,Wunderground v.1.15,2013-12-31 12:09:00,
2013-12-31 04:14:00,42.9,40.5,30.27,North,10,5.0,6.0,91,0.00,,,0.00,0,Wunderground v.1.15,2013-12-31 12:14:00,
2013-12-31 04:24:00,42.6,40.2,30.27,North,8,4.0,5.0,91,0.00,,,0.00,0,Wunderground v.1.15,2013-12-31 12:24:00,
2013-12-31 04:29:00,42.5,40.1,30.27,North,9,2.0,2.0,91,0.00,,,0.00,0,Wunderground v.1.15,2013-12-31 12:29:00,
2013-12-31 04:39:00,42.3,39.9,30.27,North,10,2.0,2.0,91,0.00,,,0.00,0,Wunderground v.1.15,2013-12-31 12:39:00,
2013-12-31 04:44:00,41.7,39.0,30.27,North,10,2.0,3.0,90,0.00,,,0.00,0,Wunderground v.1.15,2013-12-31 12:44:00,
2013-12-31 04:49:00,41.3,38.6,30.27,North,8,3.0,4.0,90,0.00,,,0.00,0,Wunderground v.1.15,2013-12-31 12:49:00,
2013-12-31 04:59:00,41.3,38.6,30.27,North,10,4.0,4.0,90,0.00,,,0.00,0,Wunderground v.1.15,2013-12-31 12:59:00,
2013-12-31 05:04:00,41.4,38.7,30.27,North,10,3.0,4.0,90,0.00,,,0.00,0,Wunderground v.1.15,2013-12-31 13:04:00,
2013-12-31 05:09:00,41.4,38.7,30.27,North,10,1.0,1.0,90,0.00,,,0.00,0,Wunderground v.1.15,2013-12-31 13:09:00,
2013-12-31 05:19:00,41.5,38.8,30.27,North,9,0.0,0.0,90,0.00,,,0.00,0,Wunderground v.1.15,2013-12-31 13:19:00,
2013-12-31 05:24:00,41.6,38.9,30.27,North,9,0.0,0.0,90,0.00,,,0.00,0,Wunderground v.1.15,2013-12-31 13:24:00,
2013-12-31 05:34:00,41.6,38.9,30.27,North,10,0.0,0.0,90,0.00,,,0.00,0,Wunderground v.1.15,2013-12-31 13:34:00,
2013-12-31 05:39:00,41.8,39.4,30.27,North,10,0.0,0.0,91,0.00,,,0.00,0,Wunderground v.1.15,2013-12-31 13:39:00,
2013-12-31 05:44:00,41.9,39.5,30.26,North,9,1.0,4.0,91,0.00,,,0.00,0,Wunderground v.1.15,2013-12-31 13:44:00,
2013-12-31 05:54:00,42.2,39.8,30.26,North,9,3.0,4.0,91,0.00,,,0.00,0,Wunderground v.1.15,2013-12-31 13:54:00,
2013-12-31 05:59:00,42.1,39.7,30.27,North,9,1.0,1.0,91,0.00,,,0.00,0,Wunderground v.1.15,2013-12-31 13:59:00,
2013-12-31 06:05:00,42.0,39.6,30.27,North,10,0.0,2.0,91,0.00,,,0.00,0,Wunderground v.1.15,2013-12-31 14:05:00,
2013-12-31 06:14:00,41.6,38.9,30.27,North,9,1.0,1.0,90,0.00,,,0.00,0,Wunderground v.1.15,2013-12-31 14:14:00,
2013-12-31 06:24:00,41.3,38.6,30.28,North,10,0.0,1.0,90,0.00,,,0.00,0,Wunderground v.1.15,2013-12-31 14:24:00,
2013-12-31 06:29:00,41.3,38.6,30.28,North,9,1.0,5.0,90,0.00,,,0.00,0,Wunderground v.1.15,2013-12-31 14:29:00,
2013-12-31 06:39:00,41.6,38.9,30.28,North,9,3.0,3.0,90,0.00,,,0.00,0,Wunderground v.1.15,2013-12-31 14:39:00,
2013-12-31 06:44:00,41.7,39.0,30.29,North,10,2.0,3.0,90,0.00,,,0.00,0,Wunderground v.1.15,2013-12-31 14:44:00,
2013-12-31 06:49:00,41.8,39.1,30.29,North,9,1.0,1.0,90,0.00,,,0.00,0,Wunderground v.1.15,2013-12-31 14:49:00,
2013-12-31 06:59:00,41.8,38.8,30.29,North,10,1.0,3.0,89,0.00,,,0.00,0,Wunderground v.1.15,2013-12-31 14:59:00,
2013-12-31 07:04:00,41.7,38.7,30.29,North,10,2.0,3.0,89,0.00,,,0.00,0,Wunderground v.1.15,2013-12-31 15:04:00,
2013-12-31 07:14:00,41.7,38.7,30.30,North,4,3.0,4.0,89,0.00,,,0.00,0,Wunderground v.1.15,2013-12-31 15:14:00,
2013-12-31 07:19:00,41.9,39.2,30.30,NNE,14,3.0,3.0,90,0.00,,,0.00,0,Wunderground v.1.15,2013-12-31 15:19:00,
2013-12-31 07:24:00,42.1,39.4,30.30,North,3,3.0,3.0,90,0.00,,,0.00,5,Wunderground v.1.15,2013-12-31 15:24:00,
2013-12-31 07:34:00,42.5,39.8,30.30,North,7,4.0,4.0,90,0.00,,,0.00,11,Wunderground v.1.15,2013-12-31 15:34:00,
2013-12-31 07:39:00,42.5,39.8,30.30,North,6,3.0,4.0,90,0.00,,,0.00,16,Wunderground v.1.15,2013-12-31 15:39:00,
2013-12-31 07:44:00,42.7,40.3,30.30,North,7,4.0,4.0,91,0.00,,,0.00,21,Wunderground v.1.15,2013-12-31 15:44:00,
2013-12-31 07:54:00,43.0,40.6,30.30,North,10,4.0,4.0,91,0.00,,,0.00,44,Wunderground v.1.15,2013-12-31 15:54:00,
2013-12-31 07:59:00,43.2,40.8,30.30,North,6,3.0,3.0,91,0.00,,,0.00,44,Wunderground v.1.15,2013-12-31 15:59:00,
2013-12-31 08:09:00,43.9,41.7,30.30,NNE,15,3.0,3.0,92,0.00,,,0.00,60,Wunderground v.1.15,2013-12-31 16:09:00,
2013-12-31 08:14:00,44.3,42.1,30.30,North,11,3.0,3.0,92,0.00,,,0.00,53,Wunderground v.1.15,2013-12-31 16:14:00,
2013-12-31 08:24:00,44.5,42.3,30.30,NNE,12,2.0,3.0,92,0.00,,,0.00,47,Wunderground v.1.15,2013-12-31 16:24:00,
2013-12-31 08:29:00,44.4,42.2,30.31,NNE,14,3.0,3.0,92,0.00,,,0.00,47,Wunderground v.1.15,2013-12-31 16:29:00,
2013-12-31 08:39:00,44.5,42.3,30.31,NNE,12,2.0,2.0,92,0.00,,,0.00,69,Wunderground v.1.15,2013-12-31 16:39:00,
2013-12-31 08:44:00,44.6,42.4,30.31,NNE,12,2.0,2.0,92,0.00,,,0.00,93,Wunderground v.1.15,2013-12-31 16:44:00,
2013-12-31 08:49:00,44.8,42.6,30.31,North,7,1.0,1.0,92,0.00,,,0.00,100,Wunderground v.1.15,2013-12-31 16:49:00,
2013-12-31 08:59:00,45.4,43.2,30.32,NNE,15,1.0,1.0,92,0.00,,,0.00,114,Wunderground v.1.15,2013-12-31 16:59:00,
2013-12-31 09:04:00,45.6,43.4,30.32,North,7,1.0,1.0,92,0.00,,,0.00,127,Wunderground v.1.15,2013-12-31 17:04:00,
2013-12-31 09:14:00,46.0,43.8,30.32,North,6,1.0,1.0,92,0.00,,,0.00,134,Wunderground v.1.15,2013-12-31 17:14:00,
2013-12-31 09:19:00,46.3,44.1,30.31,North,10,0.0,0.0,92,0.00,,,0.00,156,Wunderground v.1.15,2013-12-31 17:19:00,
2013-12-31 09:29:00,47.0,44.8,30.31,North,11,0.0,0.0,92,0.00,,,0.00,200,Wunderground v.1.15,2013-12-31 17:29:00,
2013-12-31 09:34:00,47.4,45.2,30.32,North,11,0.0,0.0,92,0.00,,,0.00,202,Wunderground v.1.15,2013-12-31 17:34:00,
2013-12-31 09:39:00,48.3,46.1,30.32,NNE,12,0.0,0.0,92,0.00,,,0.00,179,Wunderground v.1.15,2013-12-31 17:39:00,
2013-12-31 09:49:00,49.3,46.2,30.32,North,8,0.0,0.0,89,0.00,,,0.00,156,Wunderground v.1.15,2013-12-31 17:49:00,
2013-12-31 09:54:00,48.9,45.2,30.32,NNE,13,0.0,0.0,87,0.00,,,0.00,149,Wunderground v.1.15,2013-12-31 17:54:00,
2013-12-31 10:04:00,48.8,45.1,30.33,North,8,0.0,0.0,87,0.00,,,0.00,149,Wunderground v.1.15,2013-12-31 18:04:00,
2013-12-31 10:09:00,49.0,45.3,30.33,North,5,1.0,1.0,87,0.00,,,0.00,178,Wunderground v.1.15,2013-12-31 18:09:00,
2013-12-31 10:14:00,49.4,45.7,30.32,NNE,12,1.0,2.0,87,0.00,,,0.00,350,Wunderground v.1.15,2013-12-31 18:14:00,
2013-12-31 10:24:00,51.7,47.3,30.32,North,7,0.0,1.0,85,0.00,,,0.00,538,Wunderground v.1.15,2013-12-31 18:24:00,
2013-12-31 10:29:00,53.1,48.1,30.32,North,10,1.0,3.0,83,0.00,,,0.00,318,Wunderground v.1.15,2013-12-31 18:29:00,
2013-12-31 10:39:00,52.4,45.1,30.32,North,10,3.0,3.0,76,0.00,,,0.00,267,Wunderground v.1.15,2013-12-31 18:39:00,
2013-12-31 10:44:00,52.0,45.7,30.32,North,9,2.0,3.0,79,0.00,,,0.00,343,Wunderground v.1.15,2013-12-31 18:44:00,
2013-12-31 10:54:00,54.0,47.6,30.31,North,8,0.0,1.0,79,0.00,,,0.00,420,Wunderground v.1.15,2013-12-31 18:54:00,
2013-12-31 10:59:00,54.7,47.3,30.31,North,6,0.0,0.0,76,0.00,,,0.00,366,Wunderground v.1.15,2013-12-31 18:59:00,
2013-12-31 11:09:00,53.2,44.8,30.31,North,11,0.0,0.0,73,0.00,,,0.00,279,Wunderground v.1.15,2013-12-31 19:09:00,
2013-12-31 11:14:00,52.6,44.9,30.30,NNE,12,0.0,0.0,75,0.00,,,0.00,304,Wunderground v.1.15,2013-12-31 19:14:00,
2013-12-31 11:19:00,52.7,45.3,30.30,North,6,0.0,0.0,76,0.00,,,0.00,239,Wunderground v.1.15,2013-12-31 19:19:00,
2013-12-31 11:29:00,53.2,45.5,30.29,SSW,213,0.0,0.0,75,0.00,,,0.00,336,Wunderground v.1.15,2013-12-31 19:29:00,
2013-12-31 11:34:00,52.7,45.0,30.29,North,3,0.0,3.0,75,0.00,,,0.00,323,Wunderground v.1.15,2013-12-31 19:34:00,
2013-12-31 11:44:00,52.1,45.8,30.28,North,7,1.0,1.0,79,0.00,,,0.00,568,Wunderground v.1.15,2013-12-31 19:44:00,
2013-12-31 11:49:00,53.6,47.2,30.28,NNE,13,2.0,3.0,79,0.00,,,0.00,541,Wunderground v.1.15,2013-12-31 19:49:00,
2013-12-31 11:54:00,55.6,47.8,30.28,North,9,4.0,11.0,75,0.00,,,0.00,548,Wunderground v.1.15,2013-12-31 19:54:00,
2013-12-31 12:04:00,57.2,47.5,30.27,NNE,18,6.0,9.0,70,0.00,,,0.00,332,Wunderground v.1.15,2013-12-31 20:04:00,
2013-12-31 12:09:00,56.8,45.6,30.26,North,9,6.0,7.0,66,0.00,,,0.00,287,Wunderground v.1.15,2013-12-31 20:09:00,
2013-12-31 12:19:00,55.9,43.9,30.25,North,7,7.0,11.0,64,0.00,,,0.00,429,Wunderground v.1.15,2013-12-31 20:19:00,
2013-12-31 12:29:00,56.0,43.6,30.24,North,350,6.0,6.0,63,0.00,,,0.00,443,Wunderground v.1.15,2013-12-31 20:29:00,
2013-12-31 12:34:00,56.4,43.1,30.23,NNW,347,5.0,6.0,61,0.00,,,0.00,464,Wunderground v.1.15,2013-12-31 20:34:00,
2013-12-31 12:39:00,56.7,43.0,30.23,North,349,4.0,5.0,60,0.00,,,0.00,443,Wunderground v.1.15,2013-12-31 20:39:00,
2013-12-31 12:49:00,55.1,42.7,30.22,NNW,347,3.0,3.0,63,0.00,,,0.00,411,Wunderground v.1.15,2013-12-31 20:49:00,
2013-12-31 12:54:00,55.0,43.0,30.22,North,351,3.0,3.0,64,0.00,,,0.00,367,Wunderground v.1.15,2013-12-31 20:54:00,
2013-12-31 13:04:00,55.7,43.7,30.21,NNW,344,3.0,3.0,64,0.00,,,0.00,448,Wunderground v.1.15,2013-12-31 21:04:00,
2013-12-31 13:09:00,56.8,43.9,30.22,NNW,344,2.0,2.0,62,0.00,,,0.00,445,Wunderground v.1.15,2013-12-31 21:09:00,
2013-12-31 13:14:00,58.4,44.6,30.22,NNW,348,3.0,5.0,60,0.00,,,0.00,466,Wunderground v.1.15,2013-12-31 21:14:00,
2013-12-31 13:24:00,60.0,43.8,30.22,North,351,5.0,5.0,55,0.00,,,0.00,457,Wunderground v.1.15,2013-12-31 21:24:00,
2013-12-31 13:34:00,60.5,43.3,30.22,NNE,18,7.0,8.0,53,0.00,,,0.00,439,Wunderground v.1.15,2013-12-31 21:34:00,
2013-12-31 13:39:00,59.8,42.6,30.22,North,3,9.0,9.0,53,0.00,,,0.00,434,Wunderground v.1.15,2013-12-31 21:39:00,
2013-12-31 13:44:00,59.0,42.4,30.22,NNE,13,9.0,9.0,54,0.00,,,0.00,429,Wunderground v.1.15,2013-12-31 21:44:00,
2013-12-31 13:54:00,59.5,42.8,30.21,NNE,18,6.0,7.0,54,0.00,,,0.00,415,Wunderground v.1.15,2013-12-31 21:54:00,
2013-12-31 13:59:00,59.9,42.2,30.21,North,9,6.0,7.0,52,0.00,,,0.00,399,Wunderground v.1.15,2013-12-31 21:59:00,
2013-12-31 14:09:00,60.1,41.9,30.20,NNE,26,8.0,8.0,51,0.00,,,0.00,378,Wunderground v.1.15,2013-12-31 22:09:00,
2013-12-31 14:19:00,60.6,41.3,30.21,NNE,17,8.0,8.0,49,0.00,,,0.00,374,Wunderground v.1.15,2013-12-31 22:19:00,
2013-12-31 14:24:00,60.6,40.8,30.20,NNE,19,9.0,9.0,48,0.00,,,0.00,366,Wunderground v.1.15,2013-12-31 22:24:00,
2013-12-31 14:29:00,60.9,41.1,30.20,North,6,8.0,10.0,48,0.00,,,0.00,357,Wunderground v.1.15,2013-12-31 22:29:00,
2013-12-31 14:34:00,61.3,41.4,30.20,North,4,7.0,10.0,48,0.00,,,0.00,345,Wunderground v.1.15,2013-12-31 22:34:00,
2013-12-31 14:44:00,61.3,40.9,30.20,North,3,8.0,8.0,47,0.00,,,0.00,325,Wunderground v.1.15,2013-12-31 22:44:00,
2013-12-31 14:49:00,61.4,41.0,30.20,North,1,7.0,7.0,47,0.00,,,0.00,315,Wunderground v.1.15,2013-12-31 22:49:00,
2013-12-31 14:59:00,61.3,40.9,30.20,North,3,7.0,7.0,47,0.00,,,0.00,294,Wunderground v.1.15,2013-12-31 22:59:00,
2013-12-31 15:04:00,61.4,41.0,30.20,SSW,213,7.0,9.0,47,0.00,,,0.00,281,Wunderground v.1.15,2013-12-31 23:04:00,
2013-12-31 15:14:00,61.4,40.4,30.20,North,360,8.0,9.0,46,0.00,,,0.00,257,Wunderground v.1.15,2013-12-31 23:14:00,
2013-12-31 15:19:00,61.3,40.3,30.19,NNW,345,8.0,8.0,46,0.00,,,0.00,244,Wunderground v.1.15,2013-12-31 23:19:00,
2013-12-31 15:29:00,61.2,40.2,30.19,North,8,7.0,7.0,46,0.00,,,0.00,216,Wunderground v.1.15,2013-12-31 23:29:00,
2013-12-31 15:34:00,61.2,40.2,30.19,North,351,7.0,7.0,46,0.00,,,0.00,200,Wunderground v.1.15,2013-12-31 23:34:00,
2013-12-31 15:44:00,60.9,40.5,30.19,North,357,7.0,8.0,47,0.00,,,0.00,169,Wunderground v.1.15,2013-12-31 23:44:00,
2013-12-31 15:49:00,60.7,40.3,30.19,NNW,341,6.0,7.0,47,0.00,,,0.00,153,Wunderground v.1.15,2013-12-31 23:49:00,
2013-12-31 15:54:00,60.6,40.2,30.19,NNW,348,6.0,9.0,47,0.00,,,0.00,137,Wunderground v.1.15,2013-12-31 23:54:00,
2013-12-31 16:04:00,60.3,39.4,30.19,North,4,7.0,7.0,46,0.00,,,0.00,107,Wunderground v.1.15,2014-01-01 00:04:00,
2013-12-31 16:09:00,60.3,39.4,30.19,North,353,6.0,6.0,46,0.00,,,0.00,91,Wunderground v.1.15,2014-01-01 00:09:00,
2013-12-31 16:19:00,59.9,39.1,30.19,North,349,6.0,6.0,46,0.00,,,0.00,63,Wunderground v.1.15,2014-01-01 00:19:00,
2013-12-31 16:24:00,59.7,38.9,30.19,North,351,6.0,6.0,46,0.00,,,0.00,51,Wunderground v.1.15,2014-01-01 00:24:00,
2013-12-31 16:29:00,59.5,39.2,30.18,North,357,5.0,5.0,47,0.00,,,0.00,40,Wunderground v.1.15,2014-01-01 00:29:00,
2013-12-31 16:39:00,58.9,39.2,30.19,North,3,5.0,6.0,48,0.00,,,0.00,21,Wunderground v.1.15,2014-01-01 00:39:00,
2013-12-31 16:44:00,58.6,39.0,30.19,NNE,12,5.0,6.0,48,0.00,,,0.00,16,Wunderground v.1.15,2014-01-01 00:44:00,
2013-12-31 16:54:00,57.8,38.8,30.19,North,10,5.0,7.0,49,0.00,,,0.00,7,Wunderground v.1.15,2014-01-01 00:54:00,
2013-12-31 16:59:00,57.3,38.8,30.18,North,9,5.0,5.0,50,0.00,,,0.00,5,Wunderground v.1.15,2014-01-01 00:59:00,
2013-12-31 17:04:00,56.9,38.9,30.18,North,9,5.0,5.0,51,0.00,,,0.00,0,Wunderground v.1.15,2014-01-01 01:04:00,
2013-12-31 17:14:00,56.1,38.7,30.18,North,10,4.0,5.0,52,0.00,,,0.00,0,Wunderground v.1.15,2014-01-01 01:14:00,
2013-12-31 17:19:00,55.8,38.4,30.18,North,10,3.0,3.0,52,0.00,,,0.00,0,Wunderground v.1.15,2014-01-01 01:19:00,
2013-12-31 17:29:00,55.1,38.3,30.19,North,8,2.0,3.0,53,0.00,,,0.00,0,Wunderground v.1.15,2014-01-01 01:29:00,
2013-12-31 17:34:00,54.8,38.5,30.19,North,10,3.0,3.0,54,0.00,,,0.00,0,Wunderground v.1.15,2014-01-01 01:34:00,
2013-12-31 17:44:00,54.3,38.5,30.19,North,10,4.0,4.0,55,0.00,,,0.00,0,Wunderground v.1.15,2014-01-01 01:44:00,
2013-12-31 17:49:00,54.1,38.3,30.19,North,9,3.0,3.0,55,0.00,,,0.00,0,Wunderground v.1.15,2014-01-01 01:49:00,
2013-12-31 17:54:00,53.9,38.1,30.19,North,10,2.0,3.0,55,0.00,,,0.00,0,Wunderground v.1.15,2014-01-01 01:54:00,
2013-12-31 18:04:00,53.5,37.7,30.19,North,8,0.0,2.0,55,0.00,,,0.00,0,Wunderground v.1.15,2014-01-01 02:04:00,
2013-12-31 18:14:00,53.1,37.8,30.19,North,8,1.0,1.0,56,0.00,,,0.00,0,Wunderground v.1.15,2014-01-01 02:14:00,
2013-12-31 18:19:00,52.9,37.6,30.19,North,9,0.0,0.0,56,0.00,,,0.00,0,Wunderground v.1.15,2014-01-01 02:19:00,
2013-12-31 18:24:00,52.8,37.5,30.20,North,9,0.0,0.0,56,0.00,,,0.00,0,Wunderground v.1.15,2014-01-01 02:24:00,
2013-12-31 18:34:00,52.5,37.7,30.20,North,10,0.0,0.0,57,0.00,,,0.00,0,Wunderground v.1.15,2014-01-01 02:34:00,
2013-12-31 18:39:00,52.3,38.0,30.19,North,8,0.0,0.0,58,0.00,,,0.00,0,Wunderground v.1.15,2014-01-01 02:39:00,
2013-12-31 18:49:00,52.0,40.2,30.19,North,10,0.0,0.0,64,0.00,,,0.00,0,Wunderground v.1.15,2014-01-01 02:49:00,
2013-12-31 18:54:00,51.9,40.5,30.20,North,10,0.0,0.0,65,0.00,,,0.00,0,Wunderground v.1.15,2014-01-01 02:54:00,
2013-12-31 18:59:00,52.2,42.7,30.20,North,10,0.0,0.0,70,0.00,,,0.00,0,Wunderground v.1.15,2014-01-01 02:59:00,
2013-12-31 19:09:00,52.4,44.0,30.20,North,10,0.0,0.0,73,0.00,,,0.00,0,Wunderground v.1.15,2014-01-01 03:09:00,
2013-12-31 19:14:00,52.2,44.2,30.20,North,10,0.0,0.0,74,0.00,,,0.00,0,Wunderground v.1.15,2014-01-01 03:14:00,
2013-12-31 19:24:00,51.8,43.8,30.20,North,10,0.0,0.0,74,0.00,,,0.00,0,Wunderground v.1.15,2014-01-01 03:24:00,
2013-12-31 19:29:00,51.5,43.8,30.20,North,11,0.0,2.0,75,0.00,,,0.00,0,Wunderground v.1.15,2014-01-01 03:29:00,
2013-12-31 19:34:00,51.2,43.9,30.20,North,9,1.0,2.0,76,0.00,,,0.00,0,Wunderground v.1.15,2014-01-01 03:34:00,
2013-12-31 19:44:00,50.2,42.6,30.20,North,10,0.0,1.0,75,0.00,,,0.00,0,Wunderground v.1.15,2014-01-01 03:44:00,
2013-12-31 19:49:00,49.5,41.9,30.20,North,9,0.0,1.0,75,0.00,,,0.00,0,Wunderground v.1.15,2014-01-01 03:49:00,
2013-12-31 19:59:00,49.1,42.2,30.20,North,10,3.0,3.0,77,0.00,,,0.00,0,Wunderground v.1.15,2014-01-01 03:59:00,
2013-12-31 20:05:00,49.1,42.2,30.20,North,10,3.0,3.0,77,0.00,,,0.00,0,Wunderground v.1.15,2014-01-01 04:05:00,
2013-12-31 20:14:00,48.5,41.3,30.21,North,8,3.0,3.0,76,0.00,,,0.00,0,Wunderground v.1.15,2014-01-01 04:14:00,
2013-12-31 20:19:00,48.2,41.0,30.21,North,9,4.0,4.0,76,0.00,,,0.00,0,Wunderground v.1.15,2014-01-01 04:19:00,
2013-12-31 20:29:00,48.3,40.7,30.21,NNE,15,4.0,5.0,75,0.00,,,0.00,0,Wunderground v.1.15,2014-01-01 04:29:00,
2013-12-31 20:34:00,48.5,40.9,30.21,NNE,16,4.0,5.0,75,0.00,,,0.00,0,Wunderground v.1.15,2014-01-01 04:34:00,
2013-12-31 20:44:00,48.6,41.4,30.21,NNE,15,3.0,4.0,76,0.00,,,0.00,0,Wunderground v.1.15,2014-01-01 04:44:00,
2013-12-31 20:49:00,48.7,41.8,30.21,NNE,16,3.0,3.0,77,0.00,,,0.00,0,Wunderground v.1.15,2014-01-01 04:49:00,
2013-12-31 20:59:00,48.5,42.0,30.20,NNE,17,3.0,3.0,78,0.00,,,0.00,0,Wunderground v.1.15,2014-01-01 04:59:00,
2013-12-31 21:04:00,48.3,41.8,30.20,NNE,18,4.0,5.0,78,0.00,,,0.00,0,Wunderground v.1.15,2014-01-01 05:04:00,
2013-12-31 21:14:00,48.1,41.9,30.20,NNE,16,5.0,6.0,79,0.00,,,0.00,0,Wunderground v.1.15,2014-01-01 05:14:00,
2013-12-31 21:19:00,47.9,42.0,30.21,NNE,14,5.0,6.0,80,0.00,,,0.00,0,Wunderground v.1.15,2014-01-01 05:19:00,
2013-12-31 21:24:00,47.9,42.0,30.21,NNE,13,5.0,6.0,80,0.00,,,0.00,0,Wunderground v.1.15,2014-01-01 05:24:00,
2013-12-31 21:29:00,47.7,41.8,30.21,North,11,5.0,5.0,80,0.00,,,0.00,0,Wunderground v.1.15,2014-01-01 05:29:00,
2013-12-31 21:34:00,47.5,42.0,30.21,North,6,5.0,6.0,81,0.00,,,0.00,0,Wunderground v.1.15,2014-01-01 05:34:00,
2013-12-31 21:39:00,47.4,41.9,30.21,North,2,6.0,6.0,81,0.00,,,0.00,0,Wunderground v.1.15,2014-01-01 05:39:00,
2013-12-31 21:44:00,47.2,41.7,30.21,North,1,6.0,6.0,81,0.00,,,0.00,0,Wunderground v.1.15,2014-01-01 05:44:00,
2013-12-31 21:49:00,47.0,41.5,30.21,North,1,6.0,6.0,81,0.00,,,0.00,0,Wunderground v.1.15,2014-01-01 05:49:00,
2013-12-31 21:54:00,46.8,41.3,30.21,North,360,5.0,6.0,81,0.00,,,0.00,0,Wunderground v.1.15,2014-01-01 05:54:00,
2013-12-31 22:04:00,46.7,41.5,30.21,North,359,5.0,5.0,82,0.00,,,0.00,0,Wunderground v.1.15,2014-01-01 06:04:00,
2013-12-31 22:09:00,46.7,41.8,30.21,North,357,5.0,5.0,83,0.00,,,0.00,0,Wunderground v.1.15,2014-01-01 06:09:00,
2013-12-31 22:19:00,46.6,42.0,30.22,North,356,6.0,6.0,84,0.00,,,0.00,0,Wunderground v.1.15,2014-01-01 06:19:00,
2013-12-31 22:24:00,46.5,41.9,30.22,North,357,5.0,6.0,84,0.00,,,0.00,0,Wunderground v.1.15,2014-01-01 06:24:00,
2013-12-31 22:29:00,46.3,41.7,30.22,North,355,5.0,5.0,84,0.00,,,0.00,0,Wunderground v.1.15,2014-01-01 06:29:00,
2013-12-31 22:34:00,46.1,41.5,30.22,North,356,5.0,5.0,84,0.00,,,0.00,0,Wunderground v.1.15,2014-01-01 06:34:00,
2013-12-31 22:39:00,45.9,41.6,30.22,North,355,5.0,6.0,85,0.00,,,0.00,0,Wunderground v.1.15,2014-01-01 06:39:00,
2013-12-31 22:44:00,45.8,41.5,30.22,North,9,5.0,6.0,85,0.00,,,0.00,0,Wunderground v.1.15,2014-01-01 06:44:00,
2013-12-31 22:54:00,45.3,40.4,30.23,NNE,17,5.0,6.0,83,0.00,,,0.00,0,Wunderground v.1.15,2014-01-01 06:54:00,
2013-12-31 22:59:00,45.1,39.9,30.23,NNE,18,3.0,3.0,82,0.00,,,0.00,0,Wunderground v.1.15,2014-01-01 06:59:00,
2013-12-31 23:09:00,44.7,39.2,30.23,NNE,16,0.0,0.0,81,0.00,,,0.00,0,Wunderground v.1.15,2014-01-01 07:09:00,
2013-12-31 23:14:00,44.4,38.6,30.23,NNE,16,1.0,2.0,80,0.00,,,0.00,0,Wunderground v.1.15,2014-01-01 07:14:00,
2013-12-31 23:24:00,44.0,37.9,30.23,NNE,17,1.0,2.0,79,0.00,,,0.00,0,Wunderground v.1.15,2014-01-01 07:24:00,
2013-12-31 23:29:00,43.7,37.6,30.23,NNE,18,1.0,3.0,79,0.00,,,0.00,0,Wunderground v.1.15,2014-01-01 07:29:00,
2013-12-31 23:39:00,43.9,37.8,30.23,NNE,18,3.0,4.0,79,0.00,,,0.00,0,Wunderground v.1.15,2014-01-01 07:39:00,
2013-12-31 23:49:00,44.2,38.7,30.23,NNE,17,4.0,4.0,81,0.00,,,0.00,0,Wunderground v.1.15,2014-01-01 07:49:00,
2013-12-31 23:54:00,44.4,38.9,30.23,NNE,16,4.0,4.0,81,0.00,,,0.00,0,Wunderground v.1.15,2014-01-01 07:54:00,